sensor_id;sensor_type;location;lat;lon;timestamp;pressure;altitude;pressure_sealevel;temperature;humidity
79374;BME280;68844;53.128;17.958;2023-06-26T00:02:14;101096.17;;;15.37;66.16
79374;BME280;68844;53.128;17.958;2023-06-26T00:04:43;101098.13;;;15.32;66.99
79374;BME280;68844;53.128;17.958;2023-06-26T00:07:10;101097.00;;;15.29;67.00
79374;BME280;68844;53.128;17.958;2023-06-26T00:09:37;101097.49;;;15.29;66.41
79374;BME280;68844;53.128;17.958;2023-06-26T00:12:04;101102.13;;;15.29;67.11
79374;BME280;68844;53.128;17.958;2023-06-26T00:14:31;101097.92;;;15.26;67.49
79374;BME280;68844;53.128;17.958;2023-06-26T00:16:58;101099.77;;;15.22;67.38
79374;BME280;68844;53.128;17.958;2023-06-26T00:19:24;101099.61;;;15.16;67.34
79374;BME280;68844;53.128;17.958;2023-06-26T00:21:51;101099.60;;;15.12;67.82
79374;BME280;68844;53.128;17.958;2023-06-26T00:24:18;101096.85;;;15.05;67.47
79374;BME280;68844;53.128;17.958;2023-06-26T00:26:46;101095.95;;;15.01;67.84
79374;BME280;68844;53.128;17.958;2023-06-26T00:29:13;101096.73;;;15.00;67.53
79374;BME280;68844;53.128;17.958;2023-06-26T00:31:40;101099.92;;;14.97;67.70
79374;BME280;68844;53.128;17.958;2023-06-26T00:34:07;101098.66;;;14.92;68.94
79374;BME280;68844;53.128;17.958;2023-06-26T00:36:34;101096.71;;;14.87;68.68
79374;BME280;68844;53.128;17.958;2023-06-26T00:39:01;101092.05;;;14.83;69.00
79374;BME280;68844;53.128;17.958;2023-06-26T00:41:29;101092.94;;;14.80;69.32
79374;BME280;68844;53.128;17.958;2023-06-26T00:43:56;101093.07;;;14.76;68.91
79374;BME280;68844;53.128;17.958;2023-06-26T00:46:23;101092.10;;;14.72;69.76
79374;BME280;68844;53.128;17.958;2023-06-26T00:48:52;101088.83;;;14.70;69.27
79374;BME280;68844;53.128;17.958;2023-06-26T00:51:20;101086.45;;;14.69;69.59
79374;BME280;68844;53.128;17.958;2023-06-26T00:53:47;101090.45;;;14.68;69.74
79374;BME280;68844;53.128;17.958;2023-06-26T00:56:15;101089.35;;;14.65;69.66
79374;BME280;68844;53.128;17.958;2023-06-26T00:58:42;101087.61;;;14.63;69.52
79374;BME280;68844;53.128;17.958;2023-06-26T01:01:08;101090.16;;;14.59;70.19
79374;BME280;68844;53.128;17.958;2023-06-26T01:03:40;101090.09;;;14.55;69.78
79374;BME280;68844;53.128;17.958;2023-06-26T01:06:07;101085.90;;;14.52;69.15
79374;BME280;68844;53.128;17.958;2023-06-26T01:08:38;101086.46;;;14.54;69.47
79374;BME280;68844;53.128;17.958;2023-06-26T01:11:05;101086.87;;;14.53;70.27
79374;BME280;68844;53.128;17.958;2023-06-26T01:13:33;101084.07;;;14.50;71.04
79374;BME280;68844;53.128;17.958;2023-06-26T01:16:00;101083.92;;;14.47;71.04
79374;BME280;68844;53.128;17.958;2023-06-26T01:18:29;101078.51;;;14.43;70.59
79374;BME280;68844;53.128;17.958;2023-06-26T01:20:58;101077.70;;;14.39;70.42
79374;BME280;68844;53.128;17.958;2023-06-26T01:23:38;101074.83;;;14.36;69.69
79374;BME280;68844;53.128;17.958;2023-06-26T01:26:21;101069.75;;;14.38;70.07
79374;BME280;68844;53.128;17.958;2023-06-26T01:28:50;101067.92;;;14.36;70.37
79374;BME280;68844;53.128;17.958;2023-06-26T01:31:17;101067.98;;;14.33;70.35
79374;BME280;68844;53.128;17.958;2023-06-26T01:33:46;101067.14;;;14.30;70.80
79374;BME280;68844;53.128;17.958;2023-06-26T01:36:13;101063.13;;;14.26;70.80
79374;BME280;68844;53.128;17.958;2023-06-26T01:38:40;101058.78;;;14.22;70.36
79374;BME280;68844;53.128;17.958;2023-06-26T01:41:07;101056.37;;;14.21;70.80
79374;BME280;68844;53.128;17.958;2023-06-26T01:46:33;101051.80;;;14.18;71.05
79374;BME280;68844;53.128;17.958;2023-06-26T01:49:12;101050.43;;;14.15;70.87
79374;BME280;68844;53.128;17.958;2023-06-26T01:51:46;101047.45;;;14.12;71.60
79374;BME280;68844;53.128;17.958;2023-06-26T01:54:17;101046.59;;;14.07;71.63
79374;BME280;68844;53.128;17.958;2023-06-26T01:56:48;101046.97;;;14.00;71.71
79374;BME280;68844;53.128;17.958;2023-06-26T01:59:17;101046.77;;;14.01;71.31
79374;BME280;68844;53.128;17.958;2023-06-26T02:01:46;101045.80;;;13.99;71.83
79374;BME280;68844;53.128;17.958;2023-06-26T02:04:13;101048.77;;;13.97;72.20
79374;BME280;68844;53.128;17.958;2023-06-26T02:06:40;101047.73;;;13.94;71.64
79374;BME280;68844;53.128;17.958;2023-06-26T02:09:07;101040.14;;;13.92;72.20
79374;BME280;68844;53.128;17.958;2023-06-26T02:11:34;101043.36;;;13.88;72.92
79374;BME280;68844;53.128;17.958;2023-06-26T02:14:01;101041.45;;;13.85;72.84
79374;BME280;68844;53.128;17.958;2023-06-26T02:16:27;101043.70;;;13.86;72.11
79374;BME280;68844;53.128;17.958;2023-06-26T02:18:54;101040.45;;;13.84;71.96
79374;BME280;68844;53.128;17.958;2023-06-26T02:21:23;101043.67;;;13.84;72.04
79374;BME280;68844;53.128;17.958;2023-06-26T02:23:50;101043.42;;;13.82;71.87
79374;BME280;68844;53.128;17.958;2023-06-26T02:26:17;101046.02;;;13.81;71.95
79374;BME280;68844;53.128;17.958;2023-06-26T02:28:44;101042.34;;;13.77;71.85
79374;BME280;68844;53.128;17.958;2023-06-26T02:31:12;101040.33;;;13.75;72.88
79374;BME280;68844;53.128;17.958;2023-06-26T02:33:39;101040.95;;;13.76;71.84
79374;BME280;68844;53.128;17.958;2023-06-26T02:36:07;101042.59;;;13.79;72.73
79374;BME280;68844;53.128;17.958;2023-06-26T02:38:34;101045.57;;;13.79;72.63
79374;BME280;68844;53.128;17.958;2023-06-26T02:41:02;101044.30;;;13.80;72.65
79374;BME280;68844;53.128;17.958;2023-06-26T02:43:29;101043.30;;;13.81;72.42
79374;BME280;68844;53.128;17.958;2023-06-26T02:45:57;101044.14;;;13.82;73.08
79374;BME280;68844;53.128;17.958;2023-06-26T02:48:23;101047.30;;;13.82;73.44
79374;BME280;68844;53.128;17.958;2023-06-26T02:50:51;101045.65;;;13.86;72.51
79374;BME280;68844;53.128;17.958;2023-06-26T02:53:19;101046.14;;;13.89;72.34
79374;BME280;68844;53.128;17.958;2023-06-26T02:55:46;101046.84;;;13.92;72.60
79374;BME280;68844;53.128;17.958;2023-06-26T02:58:14;101048.41;;;13.94;72.49
79374;BME280;68844;53.128;17.958;2023-06-26T03:00:41;101045.48;;;13.96;72.79
79374;BME280;68844;53.128;17.958;2023-06-26T03:03:13;101047.45;;;13.99;73.40
79374;BME280;68844;53.128;17.958;2023-06-26T03:05:40;101047.92;;;13.99;72.31
79374;BME280;68844;53.128;17.958;2023-06-26T03:08:07;101046.58;;;14.07;72.48
79374;BME280;68844;53.128;17.958;2023-06-26T03:10:34;101045.69;;;14.12;72.21
79374;BME280;68844;53.128;17.958;2023-06-26T03:13:01;101049.91;;;14.17;72.16
79374;BME280;68844;53.128;17.958;2023-06-26T03:15:28;101043.38;;;14.22;72.48
79374;BME280;68844;53.128;17.958;2023-06-26T03:17:55;101041.69;;;14.29;71.68
79374;BME280;68844;53.128;17.958;2023-06-26T03:20:25;101038.06;;;14.35;71.67
79374;BME280;68844;53.128;17.958;2023-06-26T03:22:54;101036.46;;;14.71;71.40
79374;BME280;68844;53.128;17.958;2023-06-26T03:25:22;101030.68;;;15.81;70.22
79374;BME280;68844;53.128;17.958;2023-06-26T03:27:49;101028.77;;;16.82;68.27
79374;BME280;68844;53.128;17.958;2023-06-26T03:30:16;101030.09;;;17.72;66.51
79374;BME280;68844;53.128;17.958;2023-06-26T03:32:44;101026.39;;;18.48;63.96
79374;BME280;68844;53.128;17.958;2023-06-26T03:35:11;101022.98;;;19.15;62.65
79374;BME280;68844;53.128;17.958;2023-06-26T03:37:38;101022.70;;;19.93;60.61
79374;BME280;68844;53.128;17.958;2023-06-26T03:40:08;101025.52;;;20.48;59.24
79374;BME280;68844;53.128;17.958;2023-06-26T03:42:35;101022.23;;;21.10;57.68
79374;BME280;68844;53.128;17.958;2023-06-26T03:45:02;101023.23;;;21.52;55.42
79374;BME280;68844;53.128;17.958;2023-06-26T03:47:30;101025.59;;;22.06;54.10
79374;BME280;68844;53.128;17.958;2023-06-26T03:49:56;101029.20;;;22.50;52.38
79374;BME280;68844;53.128;17.958;2023-06-26T03:52:23;101024.77;;;22.95;50.48
79374;BME280;68844;53.128;17.958;2023-06-26T03:54:50;101024.52;;;23.55;50.17
79374;BME280;68844;53.128;17.958;2023-06-26T03:57:17;101020.18;;;24.12;48.86
79374;BME280;68844;53.128;17.958;2023-06-26T03:59:47;101021.17;;;24.61;46.24
79374;BME280;68844;53.128;17.958;2023-06-26T04:02:14;101021.94;;;25.28;46.75
79374;BME280;68844;53.128;17.958;2023-06-26T04:04:42;101019.66;;;25.70;43.45
79374;BME280;68844;53.128;17.958;2023-06-26T04:07:09;101017.65;;;25.96;43.70
79374;BME280;68844;53.128;17.958;2023-06-26T04:09:37;101014.52;;;26.16;42.20
79374;BME280;68844;53.128;17.958;2023-06-26T04:12:06;101015.63;;;26.31;40.62
79374;BME280;68844;53.128;17.958;2023-06-26T04:14:33;101019.46;;;26.49;38.50
79374;BME280;68844;53.128;17.958;2023-06-26T04:17:00;101017.09;;;26.80;41.04
79374;BME280;68844;53.128;17.958;2023-06-26T04:19:30;101012.21;;;27.38;37.39
79374;BME280;68844;53.128;17.958;2023-06-26T04:21:57;101012.30;;;27.35;36.93
79374;BME280;68844;53.128;17.958;2023-06-26T04:24:24;101014.45;;;27.59;37.17
79374;BME280;68844;53.128;17.958;2023-06-26T04:26:51;101011.91;;;27.95;36.90
79374;BME280;68844;53.128;17.958;2023-06-26T04:29:18;101011.79;;;28.55;36.16
79374;BME280;68844;53.128;17.958;2023-06-26T04:31:45;101015.21;;;29.17;34.66
79374;BME280;68844;53.128;17.958;2023-06-26T04:34:13;101012.27;;;29.61;34.80
79374;BME280;68844;53.128;17.958;2023-06-26T04:36:40;101013.08;;;30.13;33.86
79374;BME280;68844;53.128;17.958;2023-06-26T04:39:07;101013.04;;;30.32;31.33
79374;BME280;68844;53.128;17.958;2023-06-26T04:41:34;101014.88;;;30.32;32.72
79374;BME280;68844;53.128;17.958;2023-06-26T04:44:01;101014.13;;;30.04;31.94
79374;BME280;68844;53.128;17.958;2023-06-26T04:46:28;101011.73;;;29.64;32.95
79374;BME280;68844;53.128;17.958;2023-06-26T04:48:55;101012.46;;;29.73;32.78
79374;BME280;68844;53.128;17.958;2023-06-26T04:51:25;101013.36;;;30.33;32.36
79374;BME280;68844;53.128;17.958;2023-06-26T04:53:54;101012.64;;;31.09;31.89
79374;BME280;68844;53.128;17.958;2023-06-26T04:56:21;101011.95;;;31.61;31.01
79374;BME280;68844;53.128;17.958;2023-06-26T04:58:48;101010.61;;;31.68;29.47
79374;BME280;68844;53.128;17.958;2023-06-26T05:01:14;101014.77;;;31.76;30.22
79374;BME280;68844;53.128;17.958;2023-06-26T05:03:41;101015.31;;;32.40;29.50
79374;BME280;68844;53.128;17.958;2023-06-26T05:06:08;101012.23;;;32.90;28.89
79374;BME280;68844;53.128;17.958;2023-06-26T05:08:34;101013.61;;;33.25;27.67
79374;BME280;68844;53.128;17.958;2023-06-26T05:11:01;101012.16;;;33.79;27.09
79374;BME280;68844;53.128;17.958;2023-06-26T05:13:28;101013.23;;;34.33;27.07
79374;BME280;68844;53.128;17.958;2023-06-26T05:15:55;101014.33;;;34.53;26.43
79374;BME280;68844;53.128;17.958;2023-06-26T05:18:22;101012.08;;;34.71;25.31
79374;BME280;68844;53.128;17.958;2023-06-26T05:20:49;101009.71;;;34.95;25.72
79374;BME280;68844;53.128;17.958;2023-06-26T05:23:16;101009.63;;;34.36;25.26
79374;BME280;68844;53.128;17.958;2023-06-26T05:25:44;101005.08;;;34.50;26.15
79374;BME280;68844;53.128;17.958;2023-06-26T05:28:11;101006.78;;;35.42;24.74
79374;BME280;68844;53.128;17.958;2023-06-26T05:30:39;101002.93;;;35.72;25.12
79374;BME280;68844;53.128;17.958;2023-06-26T05:33:10;100998.09;;;36.34;24.36
79374;BME280;68844;53.128;17.958;2023-06-26T05:35:37;100995.07;;;36.75;23.23
79374;BME280;68844;53.128;17.958;2023-06-26T05:38:04;100992.74;;;36.63;22.48
79374;BME280;68844;53.128;17.958;2023-06-26T05:40:32;100996.80;;;35.96;22.93
79374;BME280;68844;53.128;17.958;2023-06-26T05:43:02;100997.00;;;35.93;23.76
79374;BME280;68844;53.128;17.958;2023-06-26T05:45:29;100994.73;;;36.18;23.59
79374;BME280;68844;53.128;17.958;2023-06-26T05:47:55;100991.16;;;36.77;23.03
79374;BME280;68844;53.128;17.958;2023-06-26T05:50:23;100991.95;;;37.28;22.53
79374;BME280;68844;53.128;17.958;2023-06-26T05:52:51;100989.64;;;38.17;21.90
79374;BME280;68844;53.128;17.958;2023-06-26T05:55:19;100988.72;;;38.63;21.10
79374;BME280;68844;53.128;17.958;2023-06-26T05:57:46;100989.32;;;38.97;20.27
79374;BME280;68844;53.128;17.958;2023-06-26T06:00:14;100985.17;;;38.76;20.82
79374;BME280;68844;53.128;17.958;2023-06-26T06:02:41;100985.19;;;39.00;20.51
79374;BME280;68844;53.128;17.958;2023-06-26T06:05:10;100987.09;;;38.57;21.27
79374;BME280;68844;53.128;17.958;2023-06-26T06:07:37;100983.89;;;38.44;20.99
79374;BME280;68844;53.128;17.958;2023-06-26T06:10:04;100984.23;;;39.05;20.53
79374;BME280;68844;53.128;17.958;2023-06-26T06:12:31;100982.52;;;39.75;20.37
79374;BME280;68844;53.128;17.958;2023-06-26T06:14:58;100984.05;;;39.68;19.71
79374;BME280;68844;53.128;17.958;2023-06-26T06:17:25;100986.17;;;38.92;20.01
79374;BME280;68844;53.128;17.958;2023-06-26T06:19:52;100983.78;;;39.10;20.74
79374;BME280;68844;53.128;17.958;2023-06-26T06:22:25;100980.02;;;39.84;20.17
79374;BME280;68844;53.128;17.958;2023-06-26T06:24:52;100982.27;;;40.23;18.78
79374;BME280;68844;53.128;17.958;2023-06-26T06:27:19;100976.86;;;40.26;19.24
79374;BME280;68844;53.128;17.958;2023-06-26T06:29:46;100974.84;;;40.91;18.34
79374;BME280;68844;53.128;17.958;2023-06-26T06:32:12;100968.35;;;41.32;18.39
79374;BME280;68844;53.128;17.958;2023-06-26T06:34:40;100969.50;;;41.36;17.97
79374;BME280;68844;53.128;17.958;2023-06-26T06:37:07;100968.61;;;41.31;17.76
79374;BME280;68844;53.128;17.958;2023-06-26T06:39:33;100967.48;;;41.82;17.32
79374;BME280;68844;53.128;17.958;2023-06-26T06:42:01;100970.13;;;41.33;17.35
79374;BME280;68844;53.128;17.958;2023-06-26T06:44:28;100968.03;;;41.13;17.63
79374;BME280;68844;53.128;17.958;2023-06-26T06:46:57;100964.33;;;40.96;17.63
79374;BME280;68844;53.128;17.958;2023-06-26T06:49:24;100964.66;;;40.72;18.46
79374;BME280;68844;53.128;17.958;2023-06-26T06:51:52;100964.46;;;41.26;18.07
79374;BME280;68844;53.128;17.958;2023-06-26T06:54:19;100963.95;;;41.96;17.49
79374;BME280;68844;53.128;17.958;2023-06-26T06:56:46;100967.16;;;42.29;16.85
79374;BME280;68844;53.128;17.958;2023-06-26T06:59:13;100963.21;;;41.22;17.98
79374;BME280;68844;53.128;17.958;2023-06-26T07:01:40;100962.69;;;41.43;17.81
79374;BME280;68844;53.128;17.958;2023-06-26T07:04:07;100964.16;;;42.03;17.81
79374;BME280;68844;53.128;17.958;2023-06-26T07:06:34;100966.27;;;42.61;17.06
79374;BME280;68844;53.128;17.958;2023-06-26T07:09:01;100968.34;;;42.61;17.30
79374;BME280;68844;53.128;17.958;2023-06-26T07:11:29;100965.34;;;42.91;17.00
79374;BME280;68844;53.128;17.958;2023-06-26T07:13:56;100958.39;;;43.63;16.11
79374;BME280;68844;53.128;17.958;2023-06-26T07:16:23;100957.61;;;44.53;15.91
79374;BME280;68844;53.128;17.958;2023-06-26T07:18:50;100955.85;;;44.58;15.48
79374;BME280;68844;53.128;17.958;2023-06-26T07:21:19;100958.54;;;43.57;15.32
79374;BME280;68844;53.128;17.958;2023-06-26T07:23:45;100956.35;;;42.64;16.56
79374;BME280;68844;53.128;17.958;2023-06-26T07:26:14;100953.69;;;42.60;16.87
79374;BME280;68844;53.128;17.958;2023-06-26T07:28:42;100958.15;;;43.33;16.39
79374;BME280;68844;53.128;17.958;2023-06-26T07:31:09;100957.33;;;43.72;16.14
79374;BME280;68844;53.128;17.958;2023-06-26T07:33:36;100957.62;;;43.71;15.33
79374;BME280;68844;53.128;17.958;2023-06-26T07:36:02;100954.94;;;43.41;15.56
79374;BME280;68844;53.128;17.958;2023-06-26T07:38:29;100952.70;;;43.28;16.16
79374;BME280;68844;53.128;17.958;2023-06-26T07:40:56;100954.67;;;42.92;15.66
79374;BME280;68844;53.128;17.958;2023-06-26T07:43:23;100949.61;;;42.37;16.16
79374;BME280;68844;53.128;17.958;2023-06-26T07:45:50;100945.05;;;42.24;16.36
79374;BME280;68844;53.128;17.958;2023-06-26T07:48:18;100943.38;;;41.22;16.84
79374;BME280;68844;53.128;17.958;2023-06-26T07:50:45;100939.15;;;41.73;17.06
79374;BME280;68844;53.128;17.958;2023-06-26T07:53:11;100938.51;;;42.69;16.69
79374;BME280;68844;53.128;17.958;2023-06-26T07:55:38;100938.02;;;43.04;15.78
79374;BME280;68844;53.128;17.958;2023-06-26T07:58:05;100934.91;;;42.72;15.92
79374;BME280;68844;53.128;17.958;2023-06-26T08:00:32;100932.61;;;42.54;16.24
79374;BME280;68844;53.128;17.958;2023-06-26T08:02:59;100937.17;;;43.61;15.27
79374;BME280;68844;53.128;17.958;2023-06-26T08:05:26;100936.36;;;43.16;15.96
79374;BME280;68844;53.128;17.958;2023-06-26T08:07:53;100930.70;;;43.59;15.89
79374;BME280;68844;53.128;17.958;2023-06-26T08:10:20;100925.84;;;43.98;15.13
79374;BME280;68844;53.128;17.958;2023-06-26T08:12:47;100925.51;;;44.31;15.21
79374;BME280;68844;53.128;17.958;2023-06-26T08:15:15;100926.54;;;44.73;14.12
79374;BME280;68844;53.128;17.958;2023-06-26T08:17:42;100920.75;;;44.36;14.94
79374;BME280;68844;53.128;17.958;2023-06-26T08:20:09;100915.09;;;44.77;14.62
79374;BME280;68844;53.128;17.958;2023-06-26T08:22:37;100913.02;;;44.61;14.47
79374;BME280;68844;53.128;17.958;2023-06-26T08:25:04;100908.09;;;44.30;14.56
79374;BME280;68844;53.128;17.958;2023-06-26T08:27:32;100907.95;;;43.88;14.21
79374;BME280;68844;53.128;17.958;2023-06-26T08:29:59;100904.64;;;43.67;15.35
79374;BME280;68844;53.128;17.958;2023-06-26T08:32:26;100902.86;;;43.92;14.76
79374;BME280;68844;53.128;17.958;2023-06-26T08:34:53;100900.31;;;44.40;14.18
79374;BME280;68844;53.128;17.958;2023-06-26T08:37:20;100903.58;;;43.43;15.15
79374;BME280;68844;53.128;17.958;2023-06-26T08:39:47;100904.21;;;43.28;15.91
79374;BME280;68844;53.128;17.958;2023-06-26T08:42:15;100901.63;;;43.83;15.05
79374;BME280;68844;53.128;17.958;2023-06-26T08:44:42;100897.40;;;43.93;14.93
79374;BME280;68844;53.128;17.958;2023-06-26T08:47:09;100898.03;;;43.91;14.81
79374;BME280;68844;53.128;17.958;2023-06-26T08:49:53;100896.95;;;44.30;14.93
79374;BME280;68844;53.128;17.958;2023-06-26T08:52:23;100895.48;;;44.59;14.04
79374;BME280;68844;53.128;17.958;2023-06-26T08:54:57;100895.98;;;44.21;13.97
79374;BME280;68844;53.128;17.958;2023-06-26T08:57:26;100900.27;;;43.01;15.11
79374;BME280;68844;53.128;17.958;2023-06-26T08:59:54;100896.64;;;43.41;15.14
79374;BME280;68844;53.128;17.958;2023-06-26T09:02:22;100892.08;;;44.34;14.61
79374;BME280;68844;53.128;17.958;2023-06-26T09:04:50;100887.70;;;45.03;13.80
79374;BME280;68844;53.128;17.958;2023-06-26T09:07:17;100886.40;;;45.42;13.70
79374;BME280;68844;53.128;17.958;2023-06-26T09:09:44;100890.22;;;45.29;13.25
79374;BME280;68844;53.128;17.958;2023-06-26T09:12:11;100888.95;;;45.39;12.31
79374;BME280;68844;53.128;17.958;2023-06-26T09:14:38;100888.67;;;43.37;13.20
79374;BME280;68844;53.128;17.958;2023-06-26T09:17:05;100884.23;;;42.93;13.75
79374;BME280;68844;53.128;17.958;2023-06-26T09:19:32;100882.02;;;42.23;14.23
79374;BME280;68844;53.128;17.958;2023-06-26T09:21:59;100876.41;;;41.46;15.20
79374;BME280;68844;53.128;17.958;2023-06-26T09:24:26;100877.14;;;42.51;14.60
79374;BME280;68844;53.128;17.958;2023-06-26T09:26:53;100870.61;;;42.77;13.79
79374;BME280;68844;53.128;17.958;2023-06-26T09:29:20;100870.66;;;42.86;14.03
79374;BME280;68844;53.128;17.958;2023-06-26T09:31:47;100865.89;;;42.68;13.90
79374;BME280;68844;53.128;17.958;2023-06-26T09:34:14;100859.80;;;42.43;14.19
79374;BME280;68844;53.128;17.958;2023-06-26T09:36:41;100859.31;;;43.17;13.62
79374;BME280;68844;53.128;17.958;2023-06-26T09:39:13;100859.70;;;43.36;13.41
79374;BME280;68844;53.128;17.958;2023-06-26T09:41:42;100858.86;;;43.51;13.47
79374;BME280;68844;53.128;17.958;2023-06-26T09:44:11;100852.83;;;41.89;13.80
79374;BME280;68844;53.128;17.958;2023-06-26T09:46:45;100849.58;;;41.39;15.95
79374;BME280;68844;53.128;17.958;2023-06-26T09:49:12;100848.08;;;42.13;15.69
79374;BME280;68844;53.128;17.958;2023-06-26T09:51:40;100847.61;;;42.78;14.33
79374;BME280;68844;53.128;17.958;2023-06-26T09:54:09;100847.13;;;43.15;13.16
79374;BME280;68844;53.128;17.958;2023-06-26T09:56:36;100849.66;;;42.38;13.76
79374;BME280;68844;53.128;17.958;2023-06-26T09:59:04;100840.48;;;40.68;14.59
79374;BME280;68844;53.128;17.958;2023-06-26T10:01:32;100840.23;;;40.46;14.90
79374;BME280;68844;53.128;17.958;2023-06-26T10:04:00;100837.75;;;38.83;15.99
79374;BME280;68844;53.128;17.958;2023-06-26T10:06:31;100838.13;;;39.22;16.73
79374;BME280;68844;53.128;17.958;2023-06-26T10:09:00;100830.88;;;40.25;16.35
79374;BME280;68844;53.128;17.958;2023-06-26T10:11:35;100836.46;;;40.23;16.17
79374;BME280;68844;53.128;17.958;2023-06-26T10:14:04;100834.98;;;38.84;16.85
79374;BME280;68844;53.128;17.958;2023-06-26T10:16:35;100837.66;;;38.57;18.45
79374;BME280;68844;53.128;17.958;2023-06-26T10:19:06;100835.27;;;37.72;19.30
79374;BME280;68844;53.128;17.958;2023-06-26T10:21:37;100834.48;;;38.14;19.22
79374;BME280;68844;53.128;17.958;2023-06-26T10:24:06;100829.92;;;37.52;19.36
79374;BME280;68844;53.128;17.958;2023-06-26T10:26:38;100827.02;;;37.55;18.99
79374;BME280;68844;53.128;17.958;2023-06-26T10:29:09;100822.85;;;38.14;18.64
79374;BME280;68844;53.128;17.958;2023-06-26T10:31:37;100818.23;;;37.37;19.17
79374;BME280;68844;53.128;17.958;2023-06-26T10:34:05;100818.66;;;37.57;20.74
79374;BME280;68844;53.128;17.958;2023-06-26T10:36:35;100811.61;;;37.21;20.23
79374;BME280;68844;53.128;17.958;2023-06-26T10:39:04;100810.42;;;37.73;18.94
79374;BME280;68844;53.128;17.958;2023-06-26T10:41:39;100807.52;;;37.34;18.90
79374;BME280;68844;53.128;17.958;2023-06-26T10:44:16;100805.04;;;35.98;20.60
79374;BME280;68844;53.128;17.958;2023-06-26T10:46:54;100800.91;;;35.33;21.83
79374;BME280;68844;53.128;17.958;2023-06-26T10:49:29;100797.03;;;35.80;20.97
79374;BME280;68844;53.128;17.958;2023-06-26T10:52:00;100795.88;;;35.94;21.43
79374;BME280;68844;53.128;17.958;2023-06-26T10:54:32;100790.15;;;36.67;20.62
79374;BME280;68844;53.128;17.958;2023-06-26T10:57:01;100787.55;;;36.92;19.71
79374;BME280;68844;53.128;17.958;2023-06-26T10:59:30;100783.79;;;36.67;19.48
79374;BME280;68844;53.128;17.958;2023-06-26T11:01:59;100784.86;;;35.27;20.58
79374;BME280;68844;53.128;17.958;2023-06-26T11:04:46;100787.77;;;34.65;21.42
79374;BME280;68844;53.128;17.958;2023-06-26T11:07:22;100783.92;;;34.54;23.46
79374;BME280;68844;53.128;17.958;2023-06-26T11:12:43;100777.64;;;35.50;20.54
79374;BME280;68844;53.128;17.958;2023-06-26T11:15:12;100782.98;;;35.60;22.26
79374;BME280;68844;53.128;17.958;2023-06-26T11:17:41;100780.38;;;35.84;21.38
79374;BME280;68844;53.128;17.958;2023-06-26T11:20:10;100780.55;;;35.43;21.97
79374;BME280;68844;53.128;17.958;2023-06-26T11:29:56;100770.02;;;34.23;22.51
79374;BME280;68844;53.128;17.958;2023-06-26T11:32:26;100771.55;;;33.58;23.09
79374;BME280;68844;53.128;17.958;2023-06-26T11:34:52;100774.23;;;33.91;23.07
79374;BME280;68844;53.128;17.958;2023-06-26T11:37:21;100770.85;;;34.32;22.24
79374;BME280;68844;53.128;17.958;2023-06-26T11:39:47;100768.92;;;34.35;22.33
79374;BME280;68844;53.128;17.958;2023-06-26T11:42:14;100769.11;;;33.97;22.52
79374;BME280;68844;53.128;17.958;2023-06-26T11:44:42;100772.94;;;33.26;23.81
79374;BME280;68844;53.128;17.958;2023-06-26T11:47:20;100770.89;;;32.95;23.20
79374;BME280;68844;53.128;17.958;2023-06-26T11:49:48;100763.56;;;32.40;23.28
79374;BME280;68844;53.128;17.958;2023-06-26T11:52:16;100759.79;;;32.23;24.25
79374;BME280;68844;53.128;17.958;2023-06-26T11:54:43;100758.72;;;31.68;25.25
79374;BME280;68844;53.128;17.958;2023-06-26T11:57:14;100754.08;;;31.61;25.53
79374;BME280;68844;53.128;17.958;2023-06-26T11:59:41;100751.56;;;31.51;25.49
79374;BME280;68844;53.128;17.958;2023-06-26T12:02:13;100748.96;;;31.64;25.38
79374;BME280;68844;53.128;17.958;2023-06-26T12:04:43;100750.13;;;32.03;25.48
79374;BME280;68844;53.128;17.958;2023-06-26T12:07:11;100748.46;;;32.79;24.82
79374;BME280;68844;53.128;17.958;2023-06-26T12:09:41;100745.78;;;33.31;23.49
79374;BME280;68844;53.128;17.958;2023-06-26T12:12:11;100739.23;;;33.63;23.33
79374;BME280;68844;53.128;17.958;2023-06-26T12:14:38;100739.13;;;33.58;22.92
79374;BME280;68844;53.128;17.958;2023-06-26T12:17:11;100736.27;;;33.24;23.65
79374;BME280;68844;53.128;17.958;2023-06-26T12:19:44;100737.17;;;33.35;23.87
79374;BME280;68844;53.128;17.958;2023-06-26T12:22:11;100727.34;;;33.36;22.83
79374;BME280;68844;53.128;17.958;2023-06-26T12:24:39;100726.60;;;32.84;24.11
79374;BME280;68844;53.128;17.958;2023-06-26T12:27:14;100723.73;;;32.65;24.85
79374;BME280;68844;53.128;17.958;2023-06-26T12:29:49;100721.61;;;32.40;25.20
79374;BME280;68844;53.128;17.958;2023-06-26T12:32:16;100723.54;;;32.11;26.29
79374;BME280;68844;53.128;17.958;2023-06-26T12:34:47;100723.71;;;32.00;26.59
79374;BME280;68844;53.128;17.958;2023-06-26T12:37:15;100720.36;;;31.92;27.07
79374;BME280;68844;53.128;17.958;2023-06-26T12:39:46;100718.14;;;31.57;28.47
79374;BME280;68844;53.128;17.958;2023-06-26T12:42:16;100713.92;;;31.46;27.92
79374;BME280;68844;53.128;17.958;2023-06-26T12:44:43;100712.05;;;31.43;28.03
79374;BME280;68844;53.128;17.958;2023-06-26T12:47:10;100708.65;;;31.40;27.39
79374;BME280;68844;53.128;17.958;2023-06-26T12:49:41;100697.17;;;31.54;27.50
79374;BME280;68844;53.128;17.958;2023-06-26T12:52:12;100696.02;;;31.37;26.98
79374;BME280;68844;53.128;17.958;2023-06-26T12:54:42;100692.30;;;31.04;26.93
79374;BME280;68844;53.128;17.958;2023-06-26T12:57:09;100692.08;;;31.21;27.04
79374;BME280;68844;53.128;17.958;2023-06-26T12:59:37;100686.13;;;31.85;27.22